sensor_id;sensor_type;location;lat;lon;timestamp;P1;durP1;ratioP1;P2;durP2;ratioP2
53867;SDS011;41577;47.470;19.080;2022-10-15T00:00:00;37.95;;;26.98;;
53867;SDS011;41577;47.470;19.080;2022-10-15T00:00:14;37.70;;;26.33;;
53867;SDS011;41577;47.470;19.080;2022-10-15T00:00:29;39.38;;;26.48;;
53867;SDS011;41577;47.470;19.080;2022-10-15T00:00:44;37.38;;;26.40;;
53867;SDS011;41577;47.470;19.080;2022-10-15T00:01:06;38.85;;;26.58;;
53867;SDS011;41577;47.470;19.080;2022-10-15T00:01:23;39.60;;;27.20;;
53867;SDS011;41577;47.470;19.080;2022-10-15T00:01:38;40.92;;;27.38;;
53867;SDS011;41577;47.470;19.080;2022-10-15T00:01:54;40.15;;;26.08;;
53867;SDS011;41577;47.470;19.080;2022-10-15T00:02:10;38.85;;;26.20;;
53867;SDS011;41577;47.470;19.080;2022-10-15T00:02:25;35.97;;;26.23;;
53867;SDS011;41577;47.470;19.080;2022-10-15T00:02:39;35.97;;;25.50;;
53867;SDS011;41577;47.470;19.080;2022-10-15T00:02:54;38.72;;;25.95;;
53867;SDS011;41577;47.470;19.080;2022-10-15T00:03:10;43.13;;;26.45;;
53867;SDS011;41577;47.470;19.080;2022-10-15T00:03:25;49.65;;;26.85;;
53867;SDS011;41577;47.470;19.080;2022-10-15T00:03:40;50.25;;;27.40;;
53867;SDS011;41577;47.470;19.080;2022-10-15T00:03:58;39.67;;;26.17;;
53867;SDS011;41577;47.470;19.080;2022-10-15T00:04:13;35.83;;;26.63;;
53867;SDS011;41577;47.470;19.080;2022-10-15T00:04:29;37.13;;;27.27;;
53867;SDS011;41577;47.470;19.080;2022-10-15T00:04:43;37.20;;;26.63;;
53867;SDS011;41577;47.470;19.080;2022-10-15T00:04:58;35.47;;;26.25;;
53867;SDS011;41577;47.470;19.080;2022-10-15T00:05:13;35.35;;;26.58;;
53867;SDS011;41577;47.470;19.080;2022-10-15T00:05:29;39.50;;;27.20;;
53867;SDS011;41577;47.470;19.080;2022-10-15T00:05:43;40.20;;;27.35;;
53867;SDS011;41577;47.470;19.080;2022-10-15T00:06:02;38.08;;;26.80;;
53867;SDS011;41577;47.470;19.080;2022-10-15T00:06:18;36.03;;;26.77;;
53867;SDS011;41577;47.470;19.080;2022-10-15T00:06:33;35.97;;;26.85;;
53867;SDS011;41577;47.470;19.080;2022-10-15T00:06:48;34.88;;;26.52;;
53867;SDS011;41577;47.470;19.080;2022-10-15T00:07:03;34.67;;;26.75;;
53867;SDS011;41577;47.470;19.080;2022-10-15T00:07:18;36.03;;;27.20;;
53867;SDS011;41577;47.470;19.080;2022-10-15T00:07:31;41.60;;;27.80;;
53867;SDS011;41577;47.470;19.080;2022-10-15T00:07:45;41.17;;;27.88;;
53867;SDS011;41577;47.470;19.080;2022-10-15T00:08:00;37.30;;;27.42;;
53867;SDS011;41577;47.470;19.080;2022-10-15T00:08:14;35.70;;;27.05;;
53867;SDS011;41577;47.470;19.080;2022-10-15T00:08:31;35.13;;;27.05;;
53867;SDS011;41577;47.470;19.080;2022-10-15T00:08:47;40.42;;;28.20;;
53867;SDS011;41577;47.470;19.080;2022-10-15T00:09:02;39.47;;;28.13;;
53867;SDS011;41577;47.470;19.080;2022-10-15T00:09:17;34.75;;;26.60;;
53867;SDS011;41577;47.470;19.080;2022-10-15T00:09:31;37.10;;;27.15;;
53867;SDS011;41577;47.470;19.080;2022-10-15T00:09:46;40.38;;;27.90;;
53867;SDS011;41577;47.470;19.080;2022-10-15T00:10:00;40.67;;;27.05;;
53867;SDS011;41577;47.470;19.080;2022-10-15T00:10:15;40.47;;;27.13;;
53867;SDS011;41577;47.470;19.080;2022-10-15T00:10:29;39.00;;;27.33;;
53867;SDS011;41577;47.470;19.080;2022-10-15T00:10:44;40.45;;;26.98;;
53867;SDS011;41577;47.470;19.080;2022-10-15T00:11:02;40.88;;;26.75;;
53867;SDS011;41577;47.470;19.080;2022-10-15T00:11:19;38.63;;;26.98;;
53867;SDS011;41577;47.470;19.080;2022-10-15T00:11:37;38.25;;;26.80;;
53867;SDS011;41577;47.470;19.080;2022-10-15T00:11:52;38.70;;;27.65;;
53867;SDS011;41577;47.470;19.080;2022-10-15T00:12:07;41.10;;;28.85;;
53867;SDS011;41577;47.470;19.080;2022-10-15T00:12:21;40.10;;;28.67;;
53867;SDS011;41577;47.470;19.080;2022-10-15T00:12:37;39.15;;;28.45;;
53867;SDS011;41577;47.470;19.080;2022-10-15T00:12:52;40.95;;;28.92;;
53867;SDS011;41577;47.470;19.080;2022-10-15T00:13:09;37.50;;;27.83;;
53867;SDS011;41577;47.470;19.080;2022-10-15T00:13:22;35.90;;;27.23;;
53867;SDS011;41577;47.470;19.080;2022-10-15T00:13:37;39.35;;;28.17;;
53867;SDS011;41577;47.470;19.080;2022-10-15T00:13:52;42.47;;;28.35;;
53867;SDS011;41577;47.470;19.080;2022-10-15T00:14:07;43.95;;;27.52;;
53867;SDS011;41577;47.470;19.080;2022-10-15T00:14:21;43.92;;;27.42;;
53867;SDS011;41577;47.470;19.080;2022-10-15T00:14:36;40.55;;;27.83;;
53867;SDS011;41577;47.470;19.080;2022-10-15T00:14:51;42.08;;;27.65;;
53867;SDS011;41577;47.470;19.080;2022-10-15T00:15:07;45.92;;;27.80;;
53867;SDS011;41577;47.470;19.080;2022-10-15T00:15:22;47.22;;;27.48;;
53867;SDS011;41577;47.470;19.080;2022-10-15T00:15:37;44.55;;;27.45;;
53867;SDS011;41577;47.470;19.080;2022-10-15T00:15:51;41.53;;;27.90;;
53867;SDS011;41577;47.470;19.080;2022-10-15T00:16:08;38.65;;;27.05;;
53867;SDS011;41577;47.470;19.080;2022-10-15T00:16:26;37.00;;;27.23;;
53867;SDS011;41577;47.470;19.080;2022-10-15T00:16:41;38.05;;;27.33;;
53867;SDS011;41577;47.470;19.080;2022-10-15T00:16:57;38.85;;;28.20;;
53867;SDS011;41577;47.470;19.080;2022-10-15T00:17:10;40.22;;;28.70;;
53867;SDS011;41577;47.470;19.080;2022-10-15T00:17:27;40.67;;;28.23;;
53867;SDS011;41577;47.470;19.080;2022-10-15T00:17:42;39.75;;;27.98;;
53867;SDS011;41577;47.470;19.080;2022-10-15T00:17:59;38.85;;;27.25;;
53867;SDS011;41577;47.470;19.080;2022-10-15T00:18:13;39.20;;;27.63;;
53867;SDS011;41577;47.470;19.080;2022-10-15T00:18:28;42.88;;;28.48;;
53867;SDS011;41577;47.470;19.080;2022-10-15T00:18:42;45.30;;;28.90;;
53867;SDS011;41577;47.470;19.080;2022-10-15T00:19:00;41.67;;;29.60;;
53867;SDS011;41577;47.470;19.080;2022-10-15T00:19:18;40.58;;;29.38;;
53867;SDS011;41577;47.470;19.080;2022-10-15T00:19:32;38.08;;;28.80;;
53867;SDS011;41577;47.470;19.080;2022-10-15T00:19:46;38.33;;;28.83;;
53867;SDS011;41577;47.470;19.080;2022-10-15T00:20:01;43.53;;;29.05;;
53867;SDS011;41577;47.470;19.080;2022-10-15T00:20:16;45.35;;;29.40;;
53867;SDS011;41577;47.470;19.080;2022-10-15T00:20:30;43.63;;;29.52;;
53867;SDS011;41577;47.470;19.080;2022-10-15T00:20:47;43.55;;;30.15;;
53867;SDS011;41577;47.470;19.080;2022-10-15T00:21:05;40.33;;;29.05;;
53867;SDS011;41577;47.470;19.080;2022-10-15T00:21:20;38.05;;;27.65;;
53867;SDS011;41577;47.470;19.080;2022-10-15T00:21:34;39.53;;;27.67;;
53867;SDS011;41577;47.470;19.080;2022-10-15T00:21:49;46.85;;;28.45;;
53867;SDS011;41577;47.470;19.080;2022-10-15T00:22:04;45.25;;;29.13;;
53867;SDS011;41577;47.470;19.080;2022-10-15T00:22:23;42.85;;;28.60;;
53867;SDS011;41577;47.470;19.080;2022-10-15T00:22:37;43.28;;;28.33;;
53867;SDS011;41577;47.470;19.080;2022-10-15T00:22:51;43.90;;;28.17;;
53867;SDS011;41577;47.470;19.080;2022-10-15T00:23:09;45.10;;;28.63;;
53867;SDS011;41577;47.470;19.080;2022-10-15T00:23:25;43.55;;;29.48;;
53867;SDS011;41577;47.470;19.080;2022-10-15T00:23:39;42.05;;;29.45;;
53867;SDS011;41577;47.470;19.080;2022-10-15T00:23:55;39.28;;;28.25;;
53867;SDS011;41577;47.470;19.080;2022-10-15T00:24:11;39.25;;;27.95;;
53867;SDS011;41577;47.470;19.080;2022-10-15T00:24:26;41.92;;;28.35;;
53867;SDS011;41577;47.470;19.080;2022-10-15T00:24:40;43.45;;;28.60;;
53867;SDS011;41577;47.470;19.080;2022-10-15T00:24:55;45.35;;;29.60;;
53867;SDS011;41577;47.470;19.080;2022-10-15T00:25:10;45.70;;;30.10;;
53867;SDS011;41577;47.470;19.080;2022-10-15T00:25:24;39.67;;;28.67;;
53867;SDS011;41577;47.470;19.080;2022-10-15T00:25:38;38.17;;;27.55;;
53867;SDS011;41577;47.470;19.080;2022-10-15T00:26:04;37.60;;;28.27;;
53867;SDS011;41577;47.470;19.080;2022-10-15T00:26:21;39.78;;;29.13;;
53867;SDS011;41577;47.470;19.080;2022-10-15T00:26:39;39.88;;;28.65;;
53867;SDS011;41577;47.470;19.080;2022-10-15T00:26:53;37.90;;;27.73;;
53867;SDS011;41577;47.470;19.080;2022-10-15T00:27:07;41.78;;;27.77;;
53867;SDS011;41577;47.470;19.080;2022-10-15T00:27:22;44.50;;;27.88;;
53867;SDS011;41577;47.470;19.080;2022-10-15T00:27:37;38.72;;;27.58;;
53867;SDS011;41577;47.470;19.080;2022-10-15T00:27:52;38.30;;;27.77;;
53867;SDS011;41577;47.470;19.080;2022-10-15T00:28:11;38.95;;;28.27;;
53867;SDS011;41577;47.470;19.080;2022-10-15T00:28:25;36.92;;;27.02;;
53867;SDS011;41577;47.470;19.080;2022-10-15T00:28:39;43.30;;;27.38;;
53867;SDS011;41577;47.470;19.080;2022-10-15T00:28:55;46.10;;;29.45;;
53867;SDS011;41577;47.470;19.080;2022-10-15T00:29:12;41.83;;;28.35;;
53867;SDS011;41577;47.470;19.080;2022-10-15T00:29:26;41.50;;;28.15;;
53867;SDS011;41577;47.470;19.080;2022-10-15T00:29:41;42.90;;;29.27;;
53867;SDS011;41577;47.470;19.080;2022-10-15T00:29:56;43.65;;;29.20;;
53867;SDS011;41577;47.470;19.080;2022-10-15T00:30:12;43.03;;;28.48;;
53867;SDS011;41577;47.470;19.080;2022-10-15T00:30:26;42.40;;;27.52;;
53867;SDS011;41577;47.470;19.080;2022-10-15T00:30:41;42.15;;;27.58;;
53867;SDS011;41577;47.470;19.080;2022-10-15T00:31:00;38.25;;;27.77;;
53867;SDS011;41577;47.470;19.080;2022-10-15T00:31:18;41.50;;;28.40;;
53867;SDS011;41577;47.470;19.080;2022-10-15T00:31:35;37.55;;;27.67;;
53867;SDS011;41577;47.470;19.080;2022-10-15T00:31:52;39.13;;;27.33;;
53867;SDS011;41577;47.470;19.080;2022-10-15T00:32:09;39.08;;;27.70;;
53867;SDS011;41577;47.470;19.080;2022-10-15T00:32:25;37.22;;;28.58;;
53867;SDS011;41577;47.470;19.080;2022-10-15T00:32:40;37.10;;;29.10;;
53867;SDS011;41577;47.470;19.080;2022-10-15T00:32:54;36.90;;;28.85;;
53867;SDS011;41577;47.470;19.080;2022-10-15T00:33:10;36.25;;;28.08;;
53867;SDS011;41577;47.470;19.080;2022-10-15T00:33:25;39.40;;;28.02;;
53867;SDS011;41577;47.470;19.080;2022-10-15T00:33:40;45.67;;;29.42;;
53867;SDS011;41577;47.470;19.080;2022-10-15T00:33:57;46.55;;;29.88;;
53867;SDS011;41577;47.470;19.080;2022-10-15T00:34:12;42.95;;;29.35;;
53867;SDS011;41577;47.470;19.080;2022-10-15T00:34:29;38.75;;;28.38;;
53867;SDS011;41577;47.470;19.080;2022-10-15T00:34:43;36.53;;;27.95;;
53867;SDS011;41577;47.470;19.080;2022-10-15T00:34:58;36.10;;;27.50;;
53867;SDS011;41577;47.470;19.080;2022-10-15T00:35:12;43.03;;;28.38;;
53867;SDS011;41577;47.470;19.080;2022-10-15T00:35:27;45.33;;;29.35;;
53867;SDS011;41577;47.470;19.080;2022-10-15T00:35:41;42.55;;;29.27;;
53867;SDS011;41577;47.470;19.080;2022-10-15T00:35:57;40.20;;;28.42;;
53867;SDS011;41577;47.470;19.080;2022-10-15T00:36:15;36.38;;;27.70;;
53867;SDS011;41577;47.470;19.080;2022-10-15T00:36:32;41.05;;;28.92;;
53867;SDS011;41577;47.470;19.080;2022-10-15T00:36:49;43.67;;;29.27;;
53867;SDS011;41577;47.470;19.080;2022-10-15T00:37:03;40.88;;;29.38;;
53867;SDS011;41577;47.470;19.080;2022-10-15T00:37:19;38.95;;;29.63;;
53867;SDS011;41577;47.470;19.080;2022-10-15T00:37:34;39.45;;;29.13;;
53867;SDS011;41577;47.470;19.080;2022-10-15T00:37:48;38.33;;;28.55;;
53867;SDS011;41577;47.470;19.080;2022-10-15T00:38:03;39.60;;;28.85;;
53867;SDS011;41577;47.470;19.080;2022-10-15T00:38:17;43.30;;;30.33;;
53867;SDS011;41577;47.470;19.080;2022-10-15T00:38:31;43.38;;;29.95;;
53867;SDS011;41577;47.470;19.080;2022-10-15T00:38:47;42.67;;;29.20;;
53867;SDS011;41577;47.470;19.080;2022-10-15T00:39:02;44.45;;;30.25;;
53867;SDS011;41577;47.470;19.080;2022-10-15T00:39:18;48.45;;;32.50;;
53867;SDS011;41577;47.470;19.080;2022-10-15T00:39:33;46.92;;;31.45;;
53867;SDS011;41577;47.470;19.080;2022-10-15T00:39:48;40.85;;;29.48;;
53867;SDS011;41577;47.470;19.080;2022-10-15T00:40:05;40.22;;;29.88;;
53867;SDS011;41577;47.470;19.080;2022-10-15T00:40:21;42.55;;;30.08;;
53867;SDS011;41577;47.470;19.080;2022-10-15T00:40:35;41.63;;;30.08;;
53867;SDS011;41577;47.470;19.080;2022-10-15T00:40:49;43.05;;;30.83;;
53867;SDS011;41577;47.470;19.080;2022-10-15T00:41:05;43.67;;;30.80;;
53867;SDS011;41577;47.470;19.080;2022-10-15T00:41:22;40.13;;;29.33;;
53867;SDS011;41577;47.470;19.080;2022-10-15T00:41:42;40.75;;;28.85;;
53867;SDS011;41577;47.470;19.080;2022-10-15T00:41:57;44.33;;;28.83;;
53867;SDS011;41577;47.470;19.080;2022-10-15T00:42:11;43.75;;;29.52;;
53867;SDS011;41577;47.470;19.080;2022-10-15T00:42:25;43.67;;;30.90;;
53867;SDS011;41577;47.470;19.080;2022-10-15T00:42:40;43.08;;;31.55;;
53867;SDS011;41577;47.470;19.080;2022-10-15T00:42:54;39.67;;;30.13;;
53867;SDS011;41577;47.470;19.080;2022-10-15T00:43:10;41.20;;;29.70;;
53867;SDS011;41577;47.470;19.080;2022-10-15T00:43:37;41.83;;;29.90;;
53867;SDS011;41577;47.470;19.080;2022-10-15T00:43:56;42.00;;;29.63;;
53867;SDS011;41577;47.470;19.080;2022-10-15T00:45:01;43.70;;;29.63;;
53867;SDS011;41577;47.470;19.080;2022-10-15T00:45:17;43.13;;;29.13;;
53867;SDS011;41577;47.470;19.080;2022-10-15T00:45:33;42.47;;;29.08;;
53867;SDS011;41577;47.470;19.080;2022-10-15T00:45:47;43.00;;;29.55;;
53867;SDS011;41577;47.470;19.080;2022-10-15T00:46:03;48.08;;;30.50;;
53867;SDS011;41577;47.470;19.080;2022-10-15T00:46:21;47.28;;;30.13;;
53867;SDS011;41577;47.470;19.080;2022-10-15T00:46:39;42.47;;;29.30;;
53867;SDS011;41577;47.470;19.080;2022-10-15T00:46:56;43.38;;;29.73;;
53867;SDS011;41577;47.470;19.080;2022-10-15T00:47:19;48.45;;;30.30;;
53867;SDS011;41577;47.470;19.080;2022-10-15T00:47:40;44.00;;;29.73;;
53867;SDS011;41577;47.470;19.080;2022-10-15T00:47:57;43.50;;;29.73;;
53867;SDS011;41577;47.470;19.080;2022-10-15T00:48:12;39.80;;;28.58;;
53867;SDS011;41577;47.470;19.080;2022-10-15T00:48:26;39.60;;;28.38;;
53867;SDS011;41577;47.470;19.080;2022-10-15T00:48:44;40.13;;;29.70;;
53867;SDS011;41577;47.470;19.080;2022-10-15T00:49:02;39.50;;;29.60;;
53867;SDS011;41577;47.470;19.080;2022-10-15T00:49:27;40.28;;;29.77;;
53867;SDS011;41577;47.470;19.080;2022-10-15T00:49:47;38.72;;;28.27;;
53867;SDS011;41577;47.470;19.080;2022-10-15T00:50:07;38.05;;;28.05;;
53867;SDS011;41577;47.470;19.080;2022-10-15T00:50:24;40.33;;;28.40;;
53867;SDS011;41577;47.470;19.080;2022-10-15T00:50:41;45.03;;;29.73;;
53867;SDS011;41577;47.470;19.080;2022-10-15T00:50:55;43.47;;;29.27;;
53867;SDS011;41577;47.470;19.080;2022-10-15T00:51:10;42.58;;;28.63;;
53867;SDS011;41577;47.470;19.080;2022-10-15T00:51:26;40.50;;;28.58;;
53867;SDS011;41577;47.470;19.080;2022-10-15T00:51:46;39.50;;;28.25;;
53867;SDS011;41577;47.470;19.080;2022-10-15T00:52:07;42.50;;;28.65;;
53867;SDS011;41577;47.470;19.080;2022-10-15T00:52:25;40.50;;;29.02;;
53867;SDS011;41577;47.470;19.080;2022-10-15T00:52:49;37.75;;;28.67;;
53867;SDS011;41577;47.470;19.080;2022-10-15T00:53:12;43.10;;;29.05;;
53867;SDS011;41577;47.470;19.080;2022-10-15T00:53:28;43.17;;;28.25;;
53867;SDS011;41577;47.470;19.080;2022-10-15T00:53:44;39.33;;;29.23;;
53867;SDS011;41577;47.470;19.080;2022-10-15T00:54:00;42.08;;;29.08;;
53867;SDS011;41577;47.470;19.080;2022-10-15T00:54:18;40.45;;;27.83;;
53867;SDS011;41577;47.470;19.080;2022-10-15T00:54:33;40.00;;;28.25;;
53867;SDS011;41577;47.470;19.080;2022-10-15T00:54:54;41.35;;;28.23;;
53867;SDS011;41577;47.470;19.080;2022-10-15T00:55:14;44.22;;;28.98;;
53867;SDS011;41577;47.470;19.080;2022-10-15T00:55:32;51.47;;;29.20;;
53867;SDS011;41577;47.470;19.080;2022-10-15T00:55:48;46.47;;;28.63;;
53867;SDS011;41577;47.470;19.080;2022-10-15T00:56:03;40.15;;;29.23;;
53867;SDS011;41577;47.470;19.080;2022-10-15T00:56:19;40.75;;;28.75;;
53867;SDS011;41577;47.470;19.080;2022-10-15T00:56:40;38.50;;;28.00;;
53867;SDS011;41577;47.470;19.080;2022-10-15T00:56:59;43.33;;;28.83;;
53867;SDS011;41577;47.470;19.080;2022-10-15T00:57:15;41.38;;;29.25;;
53867;SDS011;41577;47.470;19.080;2022-10-15T00:57:29;40.45;;;29.27;;
53867;SDS011;41577;47.470;19.080;2022-10-15T00:57:46;40.47;;;28.88;;
53867;SDS011;41577;47.470;19.080;2022-10-15T00:58:03;40.65;;;29.00;;
53867;SDS011;41577;47.470;19.080;2022-10-15T00:58:22;44.30;;;29.35;;
53867;SDS011;41577;47.470;19.080;2022-10-15T00:58:41;41.85;;;28.55;;
53867;SDS011;41577;47.470;19.080;2022-10-15T00:58:56;41.42;;;28.67;;
53867;SDS011;41577;47.470;19.080;2022-10-15T00:59:12;43.15;;;29.65;;
53867;SDS011;41577;47.470;19.080;2022-10-15T00:59:30;40.20;;;29.30;;
53867;SDS011;41577;47.470;19.080;2022-10-15T00:59:49;38.65;;;29.42;;
53867;SDS011;41577;47.470;19.080;2022-10-15T01:00:07;42.97;;;29.42;;
53867;SDS011;41577;47.470;19.080;2022-10-15T01:00:26;42.00;;;28.42;;
53867;SDS011;41577;47.470;19.080;2022-10-15T01:00:43;38.65;;;28.80;;
53867;SDS011;41577;47.470;19.080;2022-10-15T01:00:57;39.90;;;29.85;;
53867;SDS011;41577;47.470;19.080;2022-10-15T01:01:11;41.65;;;30.13;;
53867;SDS011;41577;47.470;19.080;2022-10-15T01:01:27;43.15;;;30.83;;
53867;SDS011;41577;47.470;19.080;2022-10-15T01:01:42;40.65;;;29.88;;
53867;SDS011;41577;47.470;19.080;2022-10-15T01:01:59;46.20;;;28.85;;
53867;SDS011;41577;47.470;19.080;2022-10-15T01:02:14;46.72;;;29.13;;
53867;SDS011;41577;47.470;19.080;2022-10-15T01:02:30;40.83;;;29.75;;
53867;SDS011;41577;47.470;19.080;2022-10-15T01:02:46;45.35;;;30.98;;
53867;SDS011;41577;47.470;19.080;2022-10-15T01:03:00;47.15;;;31.20;;
53867;SDS011;41577;47.470;19.080;2022-10-15T01:03:15;44.85;;;29.95;;
53867;SDS011;41577;47.470;19.080;2022-10-15T01:03:30;44.05;;;29.95;;
53867;SDS011;41577;47.470;19.080;2022-10-15T01:03:48;42.13;;;30.35;;
53867;SDS011;41577;47.470;19.080;2022-10-15T01:04:03;48.70;;;30.95;;
53867;SDS011;41577;47.470;19.080;2022-10-15T01:04:19;50.75;;;30.33;;
53867;SDS011;41577;47.470;19.080;2022-10-15T01:04:34;43.00;;;28.92;;
53867;SDS011;41577;47.470;19.080;2022-10-15T01:04:49;41.22;;;29.67;;
53867;SDS011;41577;47.470;19.080;2022-10-15T01:05:07;41.95;;;29.55;;
53867;SDS011;41577;47.470;19.080;2022-10-15T01:05:26;47.08;;;29.77;;
53867;SDS011;41577;47.470;19.080;2022-10-15T01:05:43;47.17;;;30.52;;
53867;SDS011;41577;47.470;19.080;2022-10-15T01:06:01;41.10;;;29.42;;
53867;SDS011;41577;47.470;19.080;2022-10-15T01:06:19;42.50;;;28.60;;
53867;SDS011;41577;47.470;19.080;2022-10-15T01:06:34;42.70;;;27.73;;
53867;SDS011;41577;47.470;19.080;2022-10-15T01:06:50;42.30;;;28.50;;
53867;SDS011;41577;47.470;19.080;2022-10-15T01:07:07;41.50;;;29.25;;
53867;SDS011;41577;47.470;19.080;2022-10-15T01:07:24;46.22;;;30.23;;
53867;SDS011;41577;47.470;19.080;2022-10-15T01:07:39;47.78;;;30.33;;
53867;SDS011;41577;47.470;19.080;2022-10-15T01:07:54;42.60;;;28.90;;
53867;SDS011;41577;47.470;19.080;2022-10-15T01:08:10;41.83;;;28.10;;
53867;SDS011;41577;47.470;19.080;2022-10-15T01:08:25;41.75;;;27.67;;
53867;SDS011;41577;47.470;19.080;2022-10-15T01:08:41;38.97;;;27.92;;
53867;SDS011;41577;47.470;19.080;2022-10-15T01:08:57;36.65;;;27.48;;
53867;SDS011;41577;47.470;19.080;2022-10-15T01:09:13;41.72;;;28.20;;
53867;SDS011;41577;47.470;19.080;2022-10-15T01:09:27;43.47;;;29.40;;
53867;SDS011;41577;47.470;19.080;2022-10-15T01:09:43;44.67;;;29.33;;
53867;SDS011;41577;47.470;19.080;2022-10-15T01:10:00;41.47;;;28.63;;
53867;SDS011;41577;47.470;19.080;2022-10-15T01:10:15;36.38;;;27.88;;
53867;SDS011;41577;47.470;19.080;2022-10-15T01:10:36;44.08;;;28.80;;
53867;SDS011;41577;47.470;19.080;2022-10-15T01:10:59;41.28;;;29.15;;
53867;SDS011;41577;47.470;19.080;2022-10-15T01:11:26;46.30;;;31.02;;
53867;SDS011;41577;47.470;19.080;2022-10-15T01:11:51;41.95;;;29.88;;
53867;SDS011;41577;47.470;19.080;2022-10-15T01:12:09;39.10;;;29.40;;
53867;SDS011;41577;47.470;19.080;2022-10-15T01:12:36;39.95;;;28.05;;
53867;SDS011;41577;47.470;19.080;2022-10-15T01:13:02;44.45;;;29.30;;
53867;SDS011;41577;47.470;19.080;2022-10-15T01:13:30;45.58;;;28.20;;
53867;SDS011;41577;47.470;19.080;2022-10-15T01:13:51;44.47;;;28.98;;
53867;SDS011;41577;47.470;19.080;2022-10-15T01:14:21;39.72;;;28.15;;
53867;SDS011;41577;47.470;19.080;2022-10-15T01:14:48;44.90;;;29.08;;
53867;SDS011;41577;47.470;19.080;2022-10-15T01:15:09;39.03;;;28.25;;
53867;SDS011;41577;47.470;19.080;2022-10-15T01:15:32;39.40;;;27.40;;
53867;SDS011;41577;47.470;19.080;2022-10-15T01:15:54;39.63;;;28.38;;
53867;SDS011;41577;47.470;19.080;2022-10-15T01:16:17;38.80;;;27.83;;
53867;SDS011;41577;47.470;19.080;2022-10-15T01:16:39;37.45;;;27.33;;
53867;SDS011;41577;47.470;19.080;2022-10-15T01:17:00;37.28;;;27.60;;
53867;SDS011;41577;47.470;19.080;2022-10-15T01:17:20;39.60;;;27.30;;
53867;SDS011;41577;47.470;19.080;2022-10-15T01:17:42;40.70;;;28.35;;
53867;SDS011;41577;47.470;19.080;2022-10-15T01:18:01;42.72;;;28.65;;
53867;SDS011;41577;47.470;19.080;2022-10-15T01:18:21;41.65;;;27.70;;
53867;SDS011;41577;47.470;19.080;2022-10-15T01:18:42;44.60;;;28.88;;
53867;SDS011;41577;47.470;19.080;2022-10-15T01:19:01;45.10;;;29.05;;
53867;SDS011;41577;47.470;19.080;2022-10-15T01:19:27;44.75;;;28.85;;
53867;SDS011;41577;47.470;19.080;2022-10-15T01:20:08;43.95;;;29.70;;
53867;SDS011;41577;47.470;19.080;2022-10-15T01:20:49;42.78;;;28.52;;
53867;SDS011;41577;47.470;19.080;2022-10-15T01:21:10;39.40;;;29.17;;
53867;SDS011;41577;47.470;19.080;2022-10-15T01:21:33;41.60;;;28.92;;
53867;SDS011;41577;47.470;19.080;2022-10-15T01:21:52;39.80;;;29.20;;
53867;SDS011;41577;47.470;19.080;2022-10-15T01:22:15;42.72;;;29.13;;
53867;SDS011;41577;47.470;19.080;2022-10-15T01:22:39;38.33;;;29.05;;
53867;SDS011;41577;47.470;19.080;2022-10-15T01:23:08;36.67;;;28.80;;
53867;SDS011;41577;47.470;19.080;2022-10-15T01:23:51;41.33;;;28.92;;
53867;SDS011;41577;47.470;19.080;2022-10-15T01:24:35;41.90;;;29.05;;
53867;SDS011;41577;47.470;19.080;2022-10-15T01:25:00;42.97;;;29.40;;
53867;SDS011;41577;47.470;19.080;2022-10-15T01:25:27;39.67;;;29.02;;
53867;SDS011;41577;47.470;19.080;2022-10-15T01:25:54;39.78;;;28.55;;
53867;SDS011;41577;47.470;19.080;2022-10-15T01:26:30;42.60;;;29.52;;
53867;SDS011;41577;47.470;19.080;2022-10-15T01:27:13;45.45;;;28.77;;
53867;SDS011;41577;47.470;19.080;2022-10-15T01:27:33;46.45;;;29.08;;
53867;SDS011;41577;47.470;19.080;2022-10-15T01:27:52;43.63;;;28.00;;
53867;SDS011;41577;47.470;19.080;2022-10-15T01:28:12;40.50;;;27.38;;
53867;SDS011;41577;47.470;19.080;2022-10-15T01:28:39;42.75;;;28.88;;
53867;SDS011;41577;47.470;19.080;2022-10-15T01:29:04;41.03;;;28.05;;
53867;SDS011;41577;47.470;19.080;2022-10-15T01:29:33;37.00;;;27.48;;
53867;SDS011;41577;47.470;19.080;2022-10-15T01:30:39;39.72;;;29.20;;
53867;SDS011;41577;47.470;19.080;2022-10-15T01:30:58;38.08;;;28.35;;
53867;SDS011;41577;47.470;19.080;2022-10-15T01:31:20;37.63;;;28.58;;
53867;SDS011;41577;47.470;19.080;2022-10-15T01:31:41;38.47;;;28.45;;
53867;SDS011;41577;47.470;19.080;2022-10-15T01:32:02;40.30;;;28.85;;
53867;SDS011;41577;47.470;19.080;2022-10-15T01:32:25;37.40;;;27.50;;
53867;SDS011;41577;47.470;19.080;2022-10-15T01:32:43;36.42;;;27.85;;
53867;SDS011;41577;47.470;19.080;2022-10-15T01:33:09;37.30;;;28.65;;
53867;SDS011;41577;47.470;19.080;2022-10-15T01:33:39;43.90;;;28.30;;
53867;SDS011;41577;47.470;19.080;2022-10-15T01:34:00;40.08;;;28.15;;
53867;SDS011;41577;47.470;19.080;2022-10-15T01:34:18;40.92;;;28.73;;
53867;SDS011;41577;47.470;19.080;2022-10-15T01:34:39;42.65;;;28.13;;
53867;SDS011;41577;47.470;19.080;2022-10-15T01:35:03;40.17;;;29.70;;
53867;SDS011;41577;47.470;19.080;2022-10-15T01:35:28;38.03;;;28.55;;
53867;SDS011;41577;47.470;19.080;2022-10-15T01:35:51;43.88;;;28.15;;
53867;SDS011;41577;47.470;19.080;2022-10-15T01:36:10;41.45;;;28.08;;
53867;SDS011;41577;47.470;19.080;2022-10-15T01:36:31;39.08;;;28.30;;
53867;SDS011;41577;47.470;19.080;2022-10-15T01:36:51;39.10;;;28.73;;
53867;SDS011;41577;47.470;19.080;2022-10-15T01:37:11;38.70;;;27.63;;
53867;SDS011;41577;47.470;19.080;2022-10-15T01:37:35;39.60;;;28.25;;
53867;SDS011;41577;47.470;19.080;2022-10-15T01:37:53;35.95;;;26.85;;
53867;SDS011;41577;47.470;19.080;2022-10-15T01:38:17;39.53;;;27.17;;
53867;SDS011;41577;47.470;19.080;2022-10-15T01:38:40;39.13;;;28.33;;
53867;SDS011;41577;47.470;19.080;2022-10-15T01:39:03;44.85;;;28.75;;
53867;SDS011;41577;47.470;19.080;2022-10-15T01:39:26;38.47;;;27.88;;
53867;SDS011;41577;47.470;19.080;2022-10-15T01:39:45;38.05;;;28.15;;
53867;SDS011;41577;47.470;19.080;2022-10-15T01:40:08;39.13;;;28.75;;
53867;SDS011;41577;47.470;19.080;2022-10-15T01:40:31;41.30;;;29.52;;
53867;SDS011;41577;47.470;19.080;2022-10-15T01:40:49;39.53;;;27.90;;
53867;SDS011;41577;47.470;19.080;2022-10-15T01:41:08;42.15;;;28.02;;
53867;SDS011;41577;47.470;19.080;2022-10-15T01:41:26;47.70;;;28.65;;
53867;SDS011;41577;47.470;19.080;2022-10-15T01:41:48;44.00;;;28.10;;
53867;SDS011;41577;47.470;19.080;2022-10-15T01:42:11;39.10;;;27.77;;
53867;SDS011;41577;47.470;19.080;2022-10-15T01:42:32;39.58;;;28.33;;
53867;SDS011;41577;47.470;19.080;2022-10-15T01:42:53;46.03;;;28.73;;
53867;SDS011;41577;47.470;19.080;2022-10-15T01:43:10;39.70;;;28.23;;
53867;SDS011;41577;47.470;19.080;2022-10-15T01:43:58;49.70;;;29.20;;
53867;SDS011;41577;47.470;19.080;2022-10-15T01:44:41;38.13;;;27.13;;
53867;SDS011;41577;47.470;19.080;2022-10-15T01:45:18;43.25;;;28.58;;
53867;SDS011;41577;47.470;19.080;2022-10-15T01:46:00;41.38;;;27.42;;
53867;SDS011;41577;47.470;19.080;2022-10-15T01:46:45;36.78;;;27.58;;